KBTP/BTP METAR and TAF weather

Enter ICAO airport designator
Station Type Date Time Source
KBTP METAR 2019/06/16 06:56 UTC NOAA

KBTP 160656Z AUTO 00000KT 7SM -RA BKN047 OVC060 17/17 A2988 RMK AO2 SLP116 P0004 T01720172


Station Type Date Time Source
KBTP Decoded METAR 2019/06/16 06:56 UTC NOAA

Butler, Butler County Airport/K W Scholter Field, PA, United States (KBTP) 40-47N 079-57W
Jun 16, 2019 - 02:56 AM EDT / 2019.06.16 0656 UTC
Wind: Calm:0
Visibility: 7 mile(s):0
Sky conditions: overcast
Weather: light rain
Precipitation last hour: 0.04 inches
Temperature: 63.0 F (17.2 C)
Dew Point: 63.0 F (17.2 C)
Relative Humidity: 100%
Pressure (altimeter): 29.88 in. Hg (1011 hPa)
ob: KBTP 160656Z AUTO 00000KT 7SM -RA BKN047 OVC060 17/17 A2988 RMK AO2 SLP116 P0004 T01720172
cycle: 7

Station Type Date Time Source
KBTP TAF UTC NOAA

Error!

Example: see airport list